sensor_id;sensor_type;location;lat;lon;timestamp;temperature;humidity
71304;DHT22;59091;47.446;19.148;2023-05-24T00:00:08;19.72;72.43
71304;DHT22;59091;47.446;19.148;2023-05-24T00:02:39;19.72;72.43
71304;DHT22;59091;47.446;19.148;2023-05-24T00:05:07;19.72;72.59
71304;DHT22;59091;47.446;19.148;2023-05-24T00:07:35;19.62;72.38
71304;DHT22;59091;47.446;19.148;2023-05-24T00:10:02;19.55;72.86
71304;DHT22;59091;47.446;19.148;2023-05-24T00:12:27;19.59;72.65
71304;DHT22;59091;47.446;19.148;2023-05-24T00:14:53;19.51;72.72
71304;DHT22;59091;47.446;19.148;2023-05-24T00:17:18;19.58;72.41
71304;DHT22;59091;47.446;19.148;2023-05-24T00:19:43;19.54;72.61
71304;DHT22;59091;47.446;19.148;2023-05-24T00:22:09;19.59;72.49
71304;DHT22;59091;47.446;19.148;2023-05-24T00:24:35;19.65;72.09
71304;DHT22;59091;47.446;19.148;2023-05-24T00:27:01;19.61;72.09
71304;DHT22;59091;47.446;19.148;2023-05-24T00:29:26;19.65;71.91
71304;DHT22;59091;47.446;19.148;2023-05-24T00:31:52;19.65;71.87
71304;DHT22;59091;47.446;19.148;2023-05-24T00:34:17;19.67;71.83
71304;DHT22;59091;47.446;19.148;2023-05-24T00:36:43;19.65;71.88
71304;DHT22;59091;47.446;19.148;2023-05-24T00:39:08;19.67;71.94
71304;DHT22;59091;47.446;19.148;2023-05-24T00:41:34;19.64;71.90
71304;DHT22;59091;47.446;19.148;2023-05-24T00:43:59;19.62;71.98
71304;DHT22;59091;47.446;19.148;2023-05-24T00:46:29;19.65;71.90
71304;DHT22;59091;47.446;19.148;2023-05-24T00:48:56;19.62;71.99
71304;DHT22;59091;47.446;19.148;2023-05-24T00:51:22;19.59;72.17
71304;DHT22;59091;47.446;19.148;2023-05-24T00:53:50;19.61;72.16
71304;DHT22;59091;47.446;19.148;2023-05-24T00:56:16;19.55;72.20
71304;DHT22;59091;47.446;19.148;2023-05-24T00:58:42;19.58;72.05
71304;DHT22;59091;47.446;19.148;2023-05-24T01:01:08;19.57;72.27
71304;DHT22;59091;47.446;19.148;2023-05-24T01:03:33;19.57;72.10
71304;DHT22;59091;47.446;19.148;2023-05-24T01:06:02;19.58;72.19
71304;DHT22;59091;47.446;19.148;2023-05-24T01:08:44;19.51;72.40
71304;DHT22;59091;47.446;19.148;2023-05-24T01:19:43;19.38;72.83
71304;DHT22;59091;47.446;19.148;2023-05-24T01:25:12;19.35;73.00
71304;DHT22;59091;47.446;19.148;2023-05-24T01:27:43;19.32;73.29
71304;DHT22;59091;47.446;19.148;2023-05-24T01:30:09;19.37;73.16
71304;DHT22;59091;47.446;19.148;2023-05-24T01:32:34;19.35;73.15
71304;DHT22;59091;47.446;19.148;2023-05-24T01:35:00;19.30;73.24
71304;DHT22;59091;47.446;19.148;2023-05-24T01:37:25;19.30;73.30
71304;DHT22;59091;47.446;19.148;2023-05-24T01:39:51;19.28;73.14
71304;DHT22;59091;47.446;19.148;2023-05-24T01:42:26;19.31;72.95
71304;DHT22;59091;47.446;19.148;2023-05-24T01:48:11;19.17;73.28
71304;DHT22;59091;47.446;19.148;2023-05-24T01:50:48;19.17;73.14
71304;DHT22;59091;47.446;19.148;2023-05-24T01:53:16;19.02;73.58
71304;DHT22;59091;47.446;19.148;2023-05-24T01:55:43;19.07;73.56
71304;DHT22;59091;47.446;19.148;2023-05-24T01:58:12;19.09;73.47
71304;DHT22;59091;47.446;19.148;2023-05-24T02:00:39;19.03;73.41
71304;DHT22;59091;47.446;19.148;2023-05-24T02:03:05;18.99;73.50
71304;DHT22;59091;47.446;19.148;2023-05-24T02:05:31;19.00;73.31
71304;DHT22;59091;47.446;19.148;2023-05-24T02:07:57;18.99;73.32
71304;DHT22;59091;47.446;19.148;2023-05-24T02:10:22;18.96;73.54
71304;DHT22;59091;47.446;19.148;2023-05-24T02:12:48;18.92;73.57
71304;DHT22;59091;47.446;19.148;2023-05-24T02:15:13;18.87;73.67
71304;DHT22;59091;47.446;19.148;2023-05-24T02:17:40;18.87;73.93
71304;DHT22;59091;47.446;19.148;2023-05-24T02:20:07;18.80;74.05
71304;DHT22;59091;47.446;19.148;2023-05-24T02:22:33;18.80;73.96
71304;DHT22;59091;47.446;19.148;2023-05-24T02:24:58;18.68;74.17
71304;DHT22;59091;47.446;19.148;2023-05-24T02:27:23;18.65;74.10
71304;DHT22;59091;47.446;19.148;2023-05-24T02:29:49;18.69;74.14
71304;DHT22;59091;47.446;19.148;2023-05-24T02:32:14;18.69;74.23
71304;DHT22;59091;47.446;19.148;2023-05-24T02:34:40;18.65;74.28
71304;DHT22;59091;47.446;19.148;2023-05-24T02:37:07;18.59;74.25
71304;DHT22;59091;47.446;19.148;2023-05-24T02:39:32;18.62;74.27
71304;DHT22;59091;47.446;19.148;2023-05-24T02:41:57;18.58;74.16
71304;DHT22;59091;47.446;19.148;2023-05-24T02:44:23;18.59;74.07
71304;DHT22;59091;47.446;19.148;2023-05-24T02:46:48;18.53;74.05
71304;DHT22;59091;47.446;19.148;2023-05-24T02:49:14;18.53;74.02
71304;DHT22;59091;47.446;19.148;2023-05-24T02:51:39;18.49;74.14
71304;DHT22;59091;47.446;19.148;2023-05-24T02:54:05;18.46;74.09
71304;DHT22;59091;47.446;19.148;2023-05-24T02:56:30;18.44;74.20
71304;DHT22;59091;47.446;19.148;2023-05-24T02:58:56;18.48;74.11
71304;DHT22;59091;47.446;19.148;2023-05-24T03:01:21;18.41;74.33
71304;DHT22;59091;47.446;19.148;2023-05-24T03:03:47;18.36;74.68
71304;DHT22;59091;47.446;19.148;2023-05-24T03:06:13;18.36;74.68
71304;DHT22;59091;47.446;19.148;2023-05-24T03:08:40;18.34;74.81
71304;DHT22;59091;47.446;19.148;2023-05-24T03:11:06;18.34;74.92
71304;DHT22;59091;47.446;19.148;2023-05-24T03:13:31;18.32;74.99
71304;DHT22;59091;47.446;19.148;2023-05-24T03:15:56;18.31;75.03
71304;DHT22;59091;47.446;19.148;2023-05-24T03:18:22;18.31;75.10
71304;DHT22;59091;47.446;19.148;2023-05-24T03:20:47;18.27;75.21
71304;DHT22;59091;47.446;19.148;2023-05-24T03:23:13;18.25;75.33
71304;DHT22;59091;47.446;19.148;2023-05-24T03:25:39;18.28;75.56
71304;DHT22;59091;47.446;19.148;2023-05-24T03:28:05;18.27;75.56
71304;DHT22;59091;47.446;19.148;2023-05-24T03:30:31;18.32;75.58
71304;DHT22;59091;47.446;19.148;2023-05-24T03:32:57;18.24;75.75
71304;DHT22;59091;47.446;19.148;2023-05-24T03:35:22;18.25;75.88
71304;DHT22;59091;47.446;19.148;2023-05-24T03:37:48;18.29;75.83
71304;DHT22;59091;47.446;19.148;2023-05-24T03:40:14;18.34;75.91
71304;DHT22;59091;47.446;19.148;2023-05-24T03:42:39;18.31;76.31
71304;DHT22;59091;47.446;19.148;2023-05-24T03:45:06;18.31;76.42
71304;DHT22;59091;47.446;19.148;2023-05-24T03:47:31;18.35;76.28
71304;DHT22;59091;47.446;19.148;2023-05-24T03:49:57;18.39;76.28
71304;DHT22;59091;47.446;19.148;2023-05-24T03:52:22;18.49;76.10
71304;DHT22;59091;47.446;19.148;2023-05-24T03:54:48;18.48;76.13
71304;DHT22;59091;47.446;19.148;2023-05-24T03:57:13;18.51;76.32
71304;DHT22;59091;47.446;19.148;2023-05-24T03:59:39;18.60;75.87
71304;DHT22;59091;47.446;19.148;2023-05-24T04:02:05;18.68;75.71
71304;DHT22;59091;47.446;19.148;2023-05-24T04:04:30;18.48;76.06
71304;DHT22;59091;47.446;19.148;2023-05-24T04:06:56;18.68;75.69
71304;DHT22;59091;47.446;19.148;2023-05-24T04:09:22;18.76;75.28
71304;DHT22;59091;47.446;19.148;2023-05-24T04:11:48;18.85;75.20
71304;DHT22;59091;47.446;19.148;2023-05-24T04:14:13;18.87;75.17
71304;DHT22;59091;47.446;19.148;2023-05-24T04:16:38;18.96;74.89
71304;DHT22;59091;47.446;19.148;2023-05-24T04:19:06;18.93;75.34
71304;DHT22;59091;47.446;19.148;2023-05-24T04:21:31;19.03;76.13
71304;DHT22;59091;47.446;19.148;2023-05-24T04:23:57;18.97;75.32
71304;DHT22;59091;47.446;19.148;2023-05-24T04:26:25;18.86;75.74
71304;DHT22;59091;47.446;19.148;2023-05-24T04:28:52;18.97;75.46
71304;DHT22;59091;47.446;19.148;2023-05-24T04:31:17;18.73;76.38
71304;DHT22;59091;47.446;19.148;2023-05-24T04:33:44;18.72;76.02
71304;DHT22;59091;47.446;19.148;2023-05-24T04:36:10;18.83;76.11
71304;DHT22;59091;47.446;19.148;2023-05-24T04:38:35;18.86;75.95
71304;DHT22;59091;47.446;19.148;2023-05-24T04:41:03;18.96;75.58
71304;DHT22;59091;47.446;19.148;2023-05-24T04:43:30;19.00;75.40
71304;DHT22;59091;47.446;19.148;2023-05-24T04:45:55;19.11;78.46
71304;DHT22;59091;47.446;19.148;2023-05-24T04:48:21;19.46;78.23
71304;DHT22;59091;47.446;19.148;2023-05-24T04:50:52;19.95;76.64
71304;DHT22;59091;47.446;19.148;2023-05-24T04:53:19;20.12;75.18
71304;DHT22;59091;47.446;19.148;2023-05-24T04:55:44;20.13;73.67
71304;DHT22;59091;47.446;19.148;2023-05-24T04:58:10;20.29;72.58
71304;DHT22;59091;47.446;19.148;2023-05-24T05:00:36;20.59;73.17
71304;DHT22;59091;47.446;19.148;2023-05-24T05:03:01;20.88;71.61
71304;DHT22;59091;47.446;19.148;2023-05-24T05:05:27;21.11;69.88
71304;DHT22;59091;47.446;19.148;2023-05-24T05:07:53;21.25;69.89
71304;DHT22;59091;47.446;19.148;2023-05-24T05:10:18;20.95;69.91
71304;DHT22;59091;47.446;19.148;2023-05-24T05:12:44;20.87;70.14
71304;DHT22;59091;47.446;19.148;2023-05-24T05:15:09;20.92;69.77
71304;DHT22;59091;47.446;19.148;2023-05-24T05:17:35;20.60;70.02
71304;DHT22;59091;47.446;19.148;2023-05-24T05:20:02;20.66;70.52
71304;DHT22;59091;47.446;19.148;2023-05-24T05:22:27;20.73;70.62
71304;DHT22;59091;47.446;19.148;2023-05-24T05:24:53;21.11;69.60
71304;DHT22;59091;47.446;19.148;2023-05-24T05:27:18;20.94;69.80
71304;DHT22;59091;47.446;19.148;2023-05-24T05:29:44;20.80;69.43
71304;DHT22;59091;47.446;19.148;2023-05-24T05:32:09;20.98;69.56
71304;DHT22;59091;47.446;19.148;2023-05-24T05:34:34;21.12;69.04
71304;DHT22;59091;47.446;19.148;2023-05-24T05:37:00;21.49;68.71
71304;DHT22;59091;47.446;19.148;2023-05-24T05:39:25;21.07;67.77
71304;DHT22;59091;47.446;19.148;2023-05-24T05:41:51;20.59;68.80
71304;DHT22;59091;47.446;19.148;2023-05-24T05:44:16;21.02;69.16
71304;DHT22;59091;47.446;19.148;2023-05-24T05:46:42;21.00;68.55
71304;DHT22;59091;47.446;19.148;2023-05-24T05:49:10;21.00;68.42
71304;DHT22;59091;47.446;19.148;2023-05-24T05:51:36;20.70;69.01
71304;DHT22;59091;47.446;19.148;2023-05-24T05:54:03;20.91;68.56
71304;DHT22;59091;47.446;19.148;2023-05-24T05:56:29;21.35;68.32
71304;DHT22;59091;47.446;19.148;2023-05-24T05:58:54;21.62;67.29
71304;DHT22;59091;47.446;19.148;2023-05-24T06:01:20;21.62;66.65
71304;DHT22;59091;47.446;19.148;2023-05-24T06:03:46;21.58;66.48
71304;DHT22;59091;47.446;19.148;2023-05-24T06:06:13;21.34;66.37
71304;DHT22;59091;47.446;19.148;2023-05-24T06:08:38;21.21;66.86
71304;DHT22;59091;47.446;19.148;2023-05-24T06:11:05;21.34;67.17
71304;DHT22;59091;47.446;19.148;2023-05-24T06:13:30;21.31;67.18
71304;DHT22;59091;47.446;19.148;2023-05-24T06:15:57;21.17;66.69
71304;DHT22;59091;47.446;19.148;2023-05-24T06:18:23;21.00;66.98
71304;DHT22;59091;47.446;19.148;2023-05-24T06:20:49;21.14;67.06
71304;DHT22;59091;47.446;19.148;2023-05-24T06:23:15;21.62;66.73
71304;DHT22;59091;47.446;19.148;2023-05-24T06:25:40;21.82;65.33
71304;DHT22;59091;47.446;19.148;2023-05-24T06:28:08;21.85;64.84
71304;DHT22;59091;47.446;19.148;2023-05-24T06:30:34;22.27;63.59
71304;DHT22;59091;47.446;19.148;2023-05-24T06:32:59;22.57;61.93
71304;DHT22;59091;47.446;19.148;2023-05-24T06:35:25;22.71;61.62
71304;DHT22;59091;47.446;19.148;2023-05-24T06:37:51;22.82;61.00
71304;DHT22;59091;47.446;19.148;2023-05-24T06:40:16;23.22;61.12
71304;DHT22;59091;47.446;19.148;2023-05-24T06:42:42;23.13;60.20
71304;DHT22;59091;47.446;19.148;2023-05-24T06:45:08;23.59;60.43
71304;DHT22;59091;47.446;19.148;2023-05-24T06:47:33;23.54;59.27
71304;DHT22;59091;47.446;19.148;2023-05-24T06:49:59;23.83;59.59
71304;DHT22;59091;47.446;19.148;2023-05-24T06:52:26;24.03;58.12
71304;DHT22;59091;47.446;19.148;2023-05-24T06:54:51;24.01;58.12
71304;DHT22;59091;47.446;19.148;2023-05-24T06:57:17;23.54;58.77
71304;DHT22;59091;47.446;19.148;2023-05-24T06:59:42;24.07;58.80
71304;DHT22;59091;47.446;19.148;2023-05-24T07:02:07;24.01;57.60
71304;DHT22;59091;47.446;19.148;2023-05-24T07:04:33;23.97;58.68
71304;DHT22;59091;47.446;19.148;2023-05-24T07:06:59;23.67;59.13
71304;DHT22;59091;47.446;19.148;2023-05-24T07:09:24;23.63;58.98
71304;DHT22;59091;47.446;19.148;2023-05-24T07:11:50;23.88;58.67
71304;DHT22;59091;47.446;19.148;2023-05-24T07:14:15;23.60;59.39
71304;DHT22;59091;47.446;19.148;2023-05-24T07:16:40;23.75;58.57
71304;DHT22;59091;47.446;19.148;2023-05-24T07:19:06;23.90;58.50
71304;DHT22;59091;47.446;19.148;2023-05-24T07:21:32;23.88;58.44
71304;DHT22;59091;47.446;19.148;2023-05-24T07:23:57;24.00;58.36
71304;DHT22;59091;47.446;19.148;2023-05-24T07:26:23;23.75;58.76
71304;DHT22;59091;47.446;19.148;2023-05-24T07:28:48;23.64;58.80
71304;DHT22;59091;47.446;19.148;2023-05-24T07:31:14;23.88;59.11
71304;DHT22;59091;47.446;19.148;2023-05-24T07:33:40;23.73;58.92
71304;DHT22;59091;47.446;19.148;2023-05-24T07:36:05;23.93;58.81
71304;DHT22;59091;47.446;19.148;2023-05-24T07:38:32;23.94;58.27
71304;DHT22;59091;47.446;19.148;2023-05-24T07:41:00;23.98;58.41
71304;DHT22;59091;47.446;19.148;2023-05-24T07:43:26;23.93;57.59
71304;DHT22;59091;47.446;19.148;2023-05-24T07:45:51;23.80;58.13
71304;DHT22;59091;47.446;19.148;2023-05-24T07:48:18;23.90;57.66
71304;DHT22;59091;47.446;19.148;2023-05-24T07:50:43;24.55;56.29
71304;DHT22;59091;47.446;19.148;2023-05-24T07:53:13;24.51;55.96
71304;DHT22;59091;47.446;19.148;2023-05-24T07:55:39;24.83;55.34
71304;DHT22;59091;47.446;19.148;2023-05-24T07:58:05;24.55;55.63
71304;DHT22;59091;47.446;19.148;2023-05-24T08:00:30;24.26;55.74
71304;DHT22;59091;47.446;19.148;2023-05-24T08:02:57;24.24;55.58
71304;DHT22;59091;47.446;19.148;2023-05-24T08:05:22;24.42;55.92
71304;DHT22;59091;47.446;19.148;2023-05-24T08:07:48;24.34;55.74
71304;DHT22;59091;47.446;19.148;2023-05-24T08:10:13;24.34;55.65
71304;DHT22;59091;47.446;19.148;2023-05-24T08:12:39;24.63;55.30
71304;DHT22;59091;47.446;19.148;2023-05-24T08:15:05;24.56;55.14
71304;DHT22;59091;47.446;19.148;2023-05-24T08:17:31;24.52;56.35
71304;DHT22;59091;47.446;19.148;2023-05-24T08:19:56;24.55;55.83
71304;DHT22;59091;47.446;19.148;2023-05-24T08:22:22;24.44;55.92
71304;DHT22;59091;47.446;19.148;2023-05-24T08:24:47;24.21;56.53
71304;DHT22;59091;47.446;19.148;2023-05-24T08:27:13;23.74;57.38
71304;DHT22;59091;47.446;19.148;2023-05-24T08:29:38;23.81;57.78
71304;DHT22;59091;47.446;19.148;2023-05-24T08:32:05;24.18;57.30
71304;DHT22;59091;47.446;19.148;2023-05-24T08:34:37;24.11;56.58
71304;DHT22;59091;47.446;19.148;2023-05-24T08:37:06;24.03;56.84
71304;DHT22;59091;47.446;19.148;2023-05-24T08:39:33;24.38;56.48
71304;DHT22;59091;47.446;19.148;2023-05-24T08:41:58;24.44;56.22
71304;DHT22;59091;47.446;19.148;2023-05-24T08:44:24;24.59;55.65
71304;DHT22;59091;47.446;19.148;2023-05-24T08:46:52;25.03;54.27
71304;DHT22;59091;47.446;19.148;2023-05-24T08:49:18;25.19;53.09
71304;DHT22;59091;47.446;19.148;2023-05-24T08:51:44;25.37;52.50
71304;DHT22;59091;47.446;19.148;2023-05-24T08:54:10;25.19;53.47
71304;DHT22;59091;47.446;19.148;2023-05-24T08:56:39;25.24;53.21
71304;DHT22;59091;47.446;19.148;2023-05-24T08:59:05;25.02;52.81
71304;DHT22;59091;47.446;19.148;2023-05-24T09:01:31;25.57;51.81
71304;DHT22;59091;47.446;19.148;2023-05-24T09:03:58;25.43;52.10
71304;DHT22;59091;47.446;19.148;2023-05-24T09:06:24;25.22;52.52
71304;DHT22;59091;47.446;19.148;2023-05-24T09:08:51;25.58;52.99
71304;DHT22;59091;47.446;19.148;2023-05-24T09:11:18;25.74;51.63
71304;DHT22;59091;47.446;19.148;2023-05-24T09:13:46;25.88;51.41
71304;DHT22;59091;47.446;19.148;2023-05-24T09:16:12;26.22;50.45
71304;DHT22;59091;47.446;19.148;2023-05-24T09:18:40;25.88;49.31
71304;DHT22;59091;47.446;19.148;2023-05-24T09:21:09;25.91;49.85
71304;DHT22;59091;47.446;19.148;2023-05-24T09:23:36;25.89;49.25
71304;DHT22;59091;47.446;19.148;2023-05-24T09:26:08;26.15;49.93
71304;DHT22;59091;47.446;19.148;2023-05-24T09:28:34;26.22;49.80
71304;DHT22;59091;47.446;19.148;2023-05-24T09:31:01;25.78;49.16
71304;DHT22;59091;47.446;19.148;2023-05-24T09:33:32;26.05;49.52
71304;DHT22;59091;47.446;19.148;2023-05-24T09:35:59;25.81;49.73
71304;DHT22;59091;47.446;19.148;2023-05-24T09:38:25;25.92;49.72
71304;DHT22;59091;47.446;19.148;2023-05-24T09:41:00;25.85;49.41
71304;DHT22;59091;47.446;19.148;2023-05-24T09:43:25;25.88;50.18
71304;DHT22;59091;47.446;19.148;2023-05-24T09:45:51;25.99;50.78
71304;DHT22;59091;47.446;19.148;2023-05-24T09:48:18;25.95;49.83
71304;DHT22;59091;47.446;19.148;2023-05-24T09:50:57;26.06;50.12
71304;DHT22;59091;47.446;19.148;2023-05-24T09:53:24;25.98;50.13
71304;DHT22;59091;47.446;19.148;2023-05-24T09:55:49;25.61;50.19
71304;DHT22;59091;47.446;19.148;2023-05-24T09:58:15;25.55;50.00
71304;DHT22;59091;47.446;19.148;2023-05-24T10:00:41;25.22;49.84
71304;DHT22;59091;47.446;19.148;2023-05-24T10:03:08;25.36;51.23
71304;DHT22;59091;47.446;19.148;2023-05-24T10:05:35;25.64;50.72
71304;DHT22;59091;47.446;19.148;2023-05-24T10:08:02;25.81;50.49
71304;DHT22;59091;47.446;19.148;2023-05-24T10:10:31;25.71;50.20
71304;DHT22;59091;47.446;19.148;2023-05-24T10:12:57;25.84;49.93
71304;DHT22;59091;47.446;19.148;2023-05-24T10:15:24;25.95;50.16
71304;DHT22;59091;47.446;19.148;2023-05-24T10:17:54;25.71;51.22
71304;DHT22;59091;47.446;19.148;2023-05-24T10:20:20;26.08;50.71
71304;DHT22;59091;47.446;19.148;2023-05-24T10:22:51;26.33;48.84
71304;DHT22;59091;47.446;19.148;2023-05-24T10:25:20;26.31;50.15
71304;DHT22;59091;47.446;19.148;2023-05-24T10:27:48;26.52;49.38
71304;DHT22;59091;47.446;19.148;2023-05-24T10:32:56;26.28;48.82
71304;DHT22;59091;47.446;19.148;2023-05-24T10:35:22;26.18;49.14
71304;DHT22;59091;47.446;19.148;2023-05-24T10:37:48;26.47;49.19
71304;DHT22;59091;47.446;19.148;2023-05-24T10:40:19;26.52;47.06
71304;DHT22;59091;47.446;19.148;2023-05-24T10:42:45;26.53;48.33
71304;DHT22;59091;47.446;19.148;2023-05-24T10:47:49;25.99;47.76
71304;DHT22;59091;47.446;19.148;2023-05-24T10:50:21;26.49;47.29
71304;DHT22;59091;47.446;19.148;2023-05-24T10:52:50;26.53;47.41
71304;DHT22;59091;47.446;19.148;2023-05-24T10:55:18;26.45;47.87
71304;DHT22;59091;47.446;19.148;2023-05-24T10:57:44;26.33;47.70
71304;DHT22;59091;47.446;19.148;2023-05-24T11:02:48;26.19;48.46
71304;DHT22;59091;47.446;19.148;2023-05-24T11:05:13;26.47;48.43
71304;DHT22;59091;47.446;19.148;2023-05-24T11:07:43;26.50;46.90
71304;DHT22;59091;47.446;19.148;2023-05-24T11:10:29;26.39;47.26
71304;DHT22;59091;47.446;19.148;2023-05-24T11:13:01;26.43;46.60
71304;DHT22;59091;47.446;19.148;2023-05-24T11:15:28;26.80;47.16
71304;DHT22;59091;47.446;19.148;2023-05-24T11:20:37;26.64;45.68
71304;DHT22;59091;47.446;19.148;2023-05-24T11:23:03;26.42;46.50
71304;DHT22;59091;47.446;19.148;2023-05-24T11:25:29;26.39;46.15
71304;DHT22;59091;47.446;19.148;2023-05-24T11:27:57;26.19;46.56
71304;DHT22;59091;47.446;19.148;2023-05-24T11:30:23;25.92;47.01
71304;DHT22;59091;47.446;19.148;2023-05-24T11:32:49;26.09;46.26
71304;DHT22;59091;47.446;19.148;2023-05-24T11:35:14;26.37;46.62
71304;DHT22;59091;47.446;19.148;2023-05-24T11:37:40;26.61;47.56
71304;DHT22;59091;47.446;19.148;2023-05-24T11:40:07;26.63;46.58
71304;DHT22;59091;47.446;19.148;2023-05-24T11:42:37;26.80;45.83
71304;DHT22;59091;47.446;19.148;2023-05-24T11:45:05;27.17;44.94
71304;DHT22;59091;47.446;19.148;2023-05-24T11:47:37;27.04;44.28
71304;DHT22;59091;47.446;19.148;2023-05-24T11:50:02;27.11;44.30
71304;DHT22;59091;47.446;19.148;2023-05-24T11:52:29;27.45;44.86
71304;DHT22;59091;47.446;19.148;2023-05-24T11:54:55;27.44;44.34
71304;DHT22;59091;47.446;19.148;2023-05-24T11:57:36;27.84;44.02
71304;DHT22;59091;47.446;19.148;2023-05-24T12:00:03;27.49;43.75
71304;DHT22;59091;47.446;19.148;2023-05-24T12:02:30;27.70;43.98
71304;DHT22;59091;47.446;19.148;2023-05-24T12:05:07;27.84;43.58
71304;DHT22;59091;47.446;19.148;2023-05-24T12:07:38;28.09;44.15
71304;DHT22;59091;47.446;19.148;2023-05-24T12:10:05;28.05;43.48
71304;DHT22;59091;47.446;19.148;2023-05-24T12:12:32;27.78;43.14
71304;DHT22;59091;47.446;19.148;2023-05-24T12:14:58;27.81;43.49
71304;DHT22;59091;47.446;19.148;2023-05-24T12:17:23;27.59;43.95
71304;DHT22;59091;47.446;19.148;2023-05-24T12:19:49;27.51;44.18
71304;DHT22;59091;47.446;19.148;2023-05-24T12:22:16;27.49;45.18
71304;DHT22;59091;47.446;19.148;2023-05-24T12:24:41;27.70;43.86
71304;DHT22;59091;47.446;19.148;2023-05-24T12:27:07;27.42;44.25
71304;DHT22;59091;47.446;19.148;2023-05-24T12:29:34;27.73;44.58
71304;DHT22;59091;47.446;19.148;2023-05-24T12:32:01;27.81;44.08
71304;DHT22;59091;47.446;19.148;2023-05-24T12:34:27;27.72;44.41
71304;DHT22;59091;47.446;19.148;2023-05-24T12:36:54;28.06;44.07
71304;DHT22;59091;47.446;19.148;2023-05-24T12:39:28;27.93;43.52
71304;DHT22;59091;47.446;19.148;2023-05-24T12:41:58;27.56;44.16
71304;DHT22;59091;47.446;19.148;2023-05-24T12:44:35;27.30;44.78
71304;DHT22;59091;47.446;19.148;2023-05-24T12:47:03;27.18;44.71
71304;DHT22;59091;47.446;19.148;2023-05-24T12:49:29;27.25;44.60
71304;DHT22;59091;47.446;19.148;2023-05-24T12:51:55;26.98;45.12
71304;DHT22;59091;47.446;19.148;2023-05-24T12:54:26;26.77;45.21
71304;DHT22;59091;47.446;19.148;2023-05-24T12:56:53;27.14;45.85
71304;DHT22;59091;47.446;19.148;2023-05-24T12:59:18;27.04;45.95
71304;DHT22;59091;47.446;19.148;2023-05-24T13:01:44;27.00;46.06
71304;DHT22;59091;47.446;19.148;2023-05-24T13:04:18;27.15;46.29
71304;DHT22;59091;47.446;19.148;2023-05-24T13:06:45;27.27;45.81
71304;DHT22;59091;47.446;19.148;2023-05-24T13:09:10;27.38;46.11
71304;DHT22;59091;47.446;19.148;2023-05-24T13:11:36;27.08;45.73
71304;DHT22;59091;47.446;19.148;2023-05-24T13:14:02;27.17;45.95
71304;DHT22;59091;47.446;19.148;2023-05-24T13:16:28;27.31;45.57
71304;DHT22;59091;47.446;19.148;2023-05-24T13:18:54;27.51;44.45
71304;DHT22;59091;47.446;19.148;2023-05-24T13:21:20;27.47;44.88
71304;DHT22;59091;47.446;19.148;2023-05-24T13:23:45;27.70;44.50
71304;DHT22;59091;47.446;19.148;2023-05-24T13:26:11;27.61;44.36
71304;DHT22;59091;47.446;19.148;2023-05-24T13:28:37;27.82;44.03
71304;DHT22;59091;47.446;19.148;2023-05-24T13:31:03;27.48;44.07
71304;DHT22;59091;47.446;19.148;2023-05-24T13:33:30;27.49;44.98
71304;DHT22;59091;47.446;19.148;2023-05-24T13:35:56;27.52;44.96
71304;DHT22;59091;47.446;19.148;2023-05-24T13:38:22;27.39;44.95
71304;DHT22;59091;47.446;19.148;2023-05-24T13:40:48;27.06;44.83
71304;DHT22;59091;47.446;19.148;2023-05-24T13:43:13;27.07;45.71
71304;DHT22;59091;47.446;19.148;2023-05-24T13:45:39;27.01;45.17
71304;DHT22;59091;47.446;19.148;2023-05-24T13:48:04;27.41;45.37
71304;DHT22;59091;47.446;19.148;2023-05-24T13:50:32;27.59;44.17
71304;DHT22;59091;47.446;19.148;2023-05-24T13:52:58;27.27;44.09
71304;DHT22;59091;47.446;19.148;2023-05-24T13:55:26;27.52;43.71
71304;DHT22;59091;47.446;19.148;2023-05-24T13:57:53;27.73;43.68
71304;DHT22;59091;47.446;19.148;2023-05-24T14:00:20;27.66;43.43
71304;DHT22;59091;47.446;19.148;2023-05-24T14:02:46;27.68;43.60
71304;DHT22;59091;47.446;19.148;2023-05-24T14:05:11;27.81;44.42
71304;DHT22;59091;47.446;19.148;2023-05-24T14:07:37;27.48;43.96
71304;DHT22;59091;47.446;19.148;2023-05-24T14:10:02;27.37;43.88
71304;DHT22;59091;47.446;19.148;2023-05-24T14:12:28;27.30;44.81
71304;DHT22;59091;47.446;19.148;2023-05-24T14:14:53;27.08;44.36
71304;DHT22;59091;47.446;19.148;2023-05-24T14:17:19;27.21;44.30
71304;DHT22;59091;47.446;19.148;2023-05-24T14:19:44;26.88;44.58
71304;DHT22;59091;47.446;19.148;2023-05-24T14:22:09;26.94;44.54
71304;DHT22;59091;47.446;19.148;2023-05-24T14:24:35;26.93;44.31
71304;DHT22;59091;47.446;19.148;2023-05-24T14:27:01;27.17;44.63
71304;DHT22;59091;47.446;19.148;2023-05-24T14:29:28;27.47;44.11
71304;DHT22;59091;47.446;19.148;2023-05-24T14:31:54;27.28;44.49
71304;DHT22;59091;47.446;19.148;2023-05-24T14:34:19;27.15;44.28
71304;DHT22;59091;47.446;19.148;2023-05-24T14:36:44;27.20;44.77
71304;DHT22;59091;47.446;19.148;2023-05-24T14:39:12;27.45;44.08
71304;DHT22;59091;47.446;19.148;2023-05-24T14:41:37;27.72;43.32
71304;DHT22;59091;47.446;19.148;2023-05-24T14:44:03;27.28;43.44
71304;DHT22;59091;47.446;19.148;2023-05-24T14:46:28;26.91;44.02
71304;DHT22;59091;47.446;19.148;2023-05-24T14:48:54;26.98;44.11
71304;DHT22;59091;47.446;19.148;2023-05-24T14:51:19;27.18;44.06
71304;DHT22;59091;47.446;19.148;2023-05-24T14:53:45;27.12;43.80
71304;DHT22;59091;47.446;19.148;2023-05-24T14:56:11;26.73;44.96
71304;DHT22;59091;47.446;19.148;2023-05-24T14:58:39;26.56;45.24
71304;DHT22;59091;47.446;19.148;2023-05-24T15:01:04;26.53;45.82
71304;DHT22;59091;47.446;19.148;2023-05-24T15:03:31;26.39;45.69
71304;DHT22;59091;47.446;19.148;2023-05-24T15:05:56;26.09;46.26
71304;DHT22;59091;47.446;19.148;2023-05-24T15:08:22;26.15;45.88
71304;DHT22;59091;47.446;19.148;2023-05-24T15:10:47;25.80;46.37
71304;DHT22;59091;47.446;19.148;2023-05-24T15:13:13;25.61;46.93
71304;DHT22;59091;47.446;19.148;2023-05-24T15:15:38;25.57;47.44
71304;DHT22;59091;47.446;19.148;2023-05-24T15:18:04;25.40;47.53
71304;DHT22;59091;47.446;19.148;2023-05-24T15:20:31;25.50;47.73
71304;DHT22;59091;47.446;19.148;2023-05-24T15:22:56;25.58;48.15
71304;DHT22;59091;47.446;19.148;2023-05-24T15:25:22;25.60;48.44
71304;DHT22;59091;47.446;19.148;2023-05-24T15:27:47;25.78;48.32
71304;DHT22;59091;47.446;19.148;2023-05-24T15:30:13;25.77;47.10
71304;DHT22;59091;47.446;19.148;2023-05-24T15:32:39;25.70;47.65
71304;DHT22;59091;47.446;19.148;2023-05-24T15:35:05;25.70;47.45